createdAt,value
2022-12-11T00:00:54.108Z,52.92
2022-12-11T00:05:56.149Z,52.42
2022-12-11T00:10:58.297Z,52.77
2022-12-11T00:16:00.420Z,52.74
2022-12-11T00:21:08.105Z,52.86
2022-12-11T00:26:14.668Z,52.20
2022-12-11T00:31:18.969Z,52.67
2022-12-11T00:36:24.049Z,52.52
2022-12-11T00:41:26.144Z,52.30
2022-12-11T00:46:28.257Z,52.65
2022-12-11T00:51:30.378Z,52.71
2022-12-11T00:56:32.642Z,52.94
2022-12-11T01:01:35.185Z,52.55
2022-12-11T01:06:37.222Z,52.37
2022-12-11T01:11:40.273Z,52.56
2022-12-11T01:16:42.337Z,52.41
2022-12-11T01:21:44.388Z,52.70
2022-12-11T01:26:46.413Z,52.07
2022-12-11T01:31:48.470Z,51.44
2022-12-11T01:36:52.862Z,51.52
2022-12-11T01:41:59.138Z,51.61
2022-12-11T01:47:01.480Z,51.70
2022-12-11T01:52:11.620Z,51.84
2022-12-11T01:57:15.569Z,51.39
2022-12-11T02:02:22.793Z,51.42
2022-12-11T02:07:25.050Z,51.14
2022-12-11T02:12:39.943Z,51.42
2022-12-11T02:18:04.945Z,51.41
2022-12-11T02:23:07.423Z,51.42
2022-12-11T02:28:25.864Z,51.25
2022-12-11T02:33:44.403Z,51.33
2022-12-11T02:38:52.237Z,51.17
2022-12-11T02:43:57.058Z,51.21
2022-12-11T02:48:59.314Z,50.93
2022-12-11T02:54:02.599Z,51.01
2022-12-11T02:59:14.466Z,50.67
2022-12-11T03:04:16.821Z,50.95
2022-12-11T03:09:18.826Z,50.86
2022-12-11T03:14:21.109Z,50.77
2022-12-11T03:19:36.906Z,50.91
2022-12-11T03:24:48.651Z,50.60
2022-12-11T03:29:58.614Z,51.35
2022-12-11T03:35:08.073Z,51.84
2022-12-11T03:40:16.713Z,51.88
2022-12-11T03:45:21.172Z,51.27
2022-12-11T03:50:24.755Z,51.92
2022-12-11T03:55:28.292Z,52.13
2022-12-11T04:00:30.489Z,51.97
2022-12-11T04:05:32.617Z,51.70
2022-12-11T04:10:34.721Z,51.42
2022-12-11T04:15:38.063Z,51.89
2022-12-11T04:20:58.475Z,52.02
2022-12-11T04:26:18.493Z,52.31
2022-12-11T04:31:22.538Z,51.97
2022-12-11T04:36:25.036Z,52.19
2022-12-11T04:41:27.053Z,51.81
2022-12-11T04:46:29.297Z,52.15
2022-12-11T04:51:31.352Z,52.39
2022-12-11T04:56:33.396Z,52.52
2022-12-11T05:01:35.479Z,51.61
2022-12-11T05:06:37.535Z,52.51
2022-12-11T05:11:39.973Z,52.23
2022-12-11T05:16:41.929Z,52.19
2022-12-11T05:21:43.972Z,51.87
2022-12-11T05:26:45.938Z,51.28
2022-12-11T05:31:47.940Z,51.58
2022-12-11T05:36:50.005Z,51.98
2022-12-11T05:41:52.008Z,52.34
2022-12-11T05:46:54.114Z,52.13
2022-12-11T05:51:56.189Z,52.22
2022-12-11T05:56:58.202Z,51.44
2022-12-11T06:02:00.543Z,51.29
2022-12-11T06:07:02.628Z,51.42
2022-12-11T06:12:04.852Z,51.41
2022-12-11T06:17:07.634Z,52.24
2022-12-11T06:22:09.855Z,52.18
2022-12-11T06:27:11.924Z,51.92
2022-12-11T06:32:14.009Z,52.00
2022-12-11T06:37:16.011Z,51.99
2022-12-11T06:42:18.284Z,52.21
2022-12-11T06:47:20.455Z,52.06
2022-12-11T06:52:30.074Z,52.35
2022-12-11T06:57:32.956Z,52.07
2022-12-11T07:02:35.005Z,52.30
2022-12-11T07:07:37.417Z,52.35
2022-12-11T07:12:39.853Z,52.19
2022-12-11T07:17:41.825Z,52.08
2022-12-11T07:22:46.712Z,52.46
2022-12-11T07:27:49.025Z,52.40
2022-12-11T07:32:51.073Z,52.15
2022-12-11T07:37:53.074Z,52.24
2022-12-11T07:42:55.142Z,52.21
2022-12-11T07:47:57.103Z,52.00
2022-12-11T07:52:59.175Z,52.20
2022-12-11T07:58:01.226Z,52.31
2022-12-11T08:03:03.202Z,52.36
2022-12-11T08:08:05.729Z,52.38
2022-12-11T08:13:09.084Z,52.20
2022-12-11T08:18:11.146Z,52.19
2022-12-11T08:23:13.166Z,52.27
2022-12-11T08:28:15.214Z,52.43
2022-12-11T08:33:17.269Z,52.55
2022-12-11T08:38:25.028Z,52.51
2022-12-11T08:43:27.467Z,52.30
2022-12-11T08:48:29.607Z,51.91
2022-12-11T08:53:33.563Z,52.17
2022-12-11T08:58:37.786Z,52.15
2022-12-11T09:03:40.414Z,52.28
2022-12-11T09:08:51.929Z,52.42
2022-12-11T09:13:55.302Z,52.29
2022-12-11T09:18:59.255Z,52.48
2022-12-11T09:24:01.763Z,52.39
2022-12-11T09:29:05.266Z,52.53
2022-12-11T09:34:11.880Z,52.47
2022-12-11T09:39:16.016Z,52.59
2022-12-11T09:44:36.717Z,52.50
2022-12-11T09:49:41.796Z,52.51
2022-12-11T09:55:17.759Z,52.51
2022-12-11T10:00:53.090Z,52.43
2022-12-11T10:06:04.203Z,52.43
2022-12-11T10:11:39.014Z,52.37
2022-12-11T10:16:55.135Z,52.34
2022-12-11T10:21:58.724Z,52.17
2022-12-11T10:27:32.019Z,52.28
2022-12-11T10:32:54.511Z,52.27
2022-12-11T10:38:02.854Z,52.34
2022-12-11T10:43:04.884Z,52.23
2022-12-11T10:48:11.373Z,52.16
2022-12-11T10:53:21.641Z,52.14
2022-12-11T10:58:27.859Z,52.27
2022-12-11T11:03:30.152Z,52.34
2022-12-11T11:08:44.761Z,52.28
2022-12-11T11:13:46.917Z,52.23
2022-12-11T11:18:57.691Z,52.17
2022-12-11T11:23:59.954Z,52.08
2022-12-11T11:29:02.282Z,52.26
2022-12-11T11:34:10.989Z,52.09
2022-12-11T11:39:31.520Z,52.33
2022-12-11T11:44:40.651Z,52.22
2022-12-11T11:50:03.623Z,52.16
2022-12-11T11:55:20.209Z,52.18
2022-12-11T12:00:31.936Z,52.22
2022-12-11T12:05:58.275Z,52.12
2022-12-11T12:11:40.597Z,52.35
2022-12-11T12:17:19.971Z,52.31
2022-12-11T12:22:42.455Z,52.07
2022-12-11T12:28:14.820Z,52.17
2022-12-11T12:33:48.842Z,52.28
2022-12-11T12:38:56.081Z,52.35
2022-12-11T12:44:19.638Z,52.40
2022-12-11T12:49:34.945Z,52.38
2022-12-11T12:54:38.940Z,52.15
2022-12-11T12:59:40.950Z,52.30
2022-12-11T13:04:59.666Z,52.25
2022-12-11T13:10:21.981Z,52.46
2022-12-11T13:15:25.190Z,52.47
2022-12-11T13:20:31.284Z,52.48
2022-12-11T13:25:47.853Z,52.49
2022-12-11T13:31:01.973Z,52.53
2022-12-11T13:36:29.389Z,52.47
2022-12-11T13:41:36.875Z,52.49
2022-12-11T13:46:39.928Z,52.37
2022-12-11T13:51:52.834Z,52.24
2022-12-11T13:57:01.165Z,52.45
2022-12-11T14:02:29.425Z,52.37
2022-12-11T14:07:41.300Z,52.16
2022-12-11T14:12:51.902Z,52.33
2022-12-11T14:17:54.974Z,52.30
2022-12-11T14:23:19.137Z,52.15
2022-12-11T14:28:23.395Z,52.13
2022-12-11T14:33:41.184Z,52.31
2022-12-11T14:38:48.043Z,52.34
2022-12-11T14:43:53.237Z,52.22
2022-12-11T14:49:03.687Z,52.32
2022-12-11T14:54:07.489Z,52.24
2022-12-11T14:59:19.783Z,52.27
2022-12-11T15:04:30.022Z,52.26
2022-12-11T15:09:36.275Z,52.19
2022-12-11T15:14:47.420Z,52.25
2022-12-11T15:19:54.112Z,52.28
2022-12-11T15:24:56.204Z,52.26
2022-12-11T15:29:58.402Z,52.11
2022-12-11T15:35:00.503Z,52.11
2022-12-11T15:40:05.146Z,52.17
2022-12-11T15:45:12.280Z,52.19
2022-12-11T15:50:21.042Z,52.32
2022-12-11T15:55:25.930Z,52.34
2022-12-11T16:00:28.478Z,52.27
2022-12-11T16:05:30.558Z,52.43
2022-12-11T16:10:32.652Z,52.26
2022-12-11T16:15:34.907Z,52.19
2022-12-11T16:20:38.428Z,52.18
2022-12-11T16:25:45.496Z,52.40
2022-12-11T16:30:47.539Z,52.30
2022-12-11T16:35:49.597Z,52.21
2022-12-11T16:41:00.095Z,52.16
2022-12-11T16:46:02.098Z,52.27
2022-12-11T16:51:04.172Z,52.07
2022-12-11T16:56:06.976Z,52.23
2022-12-11T17:01:12.332Z,52.18
2022-12-11T17:06:16.951Z,52.31
2022-12-11T17:11:22.091Z,52.41
2022-12-11T17:16:26.307Z,52.08
2022-12-11T17:21:28.679Z,52.29
2022-12-11T17:26:31.061Z,52.21
2022-12-11T17:31:33.223Z,52.28
2022-12-11T17:36:35.655Z,52.13
2022-12-11T17:41:38.887Z,52.11
2022-12-11T17:46:40.965Z,51.90
2022-12-11T17:51:43.253Z,52.15
2022-12-11T17:56:45.412Z,52.17
2022-12-11T18:01:47.613Z,52.05
2022-12-11T18:06:49.588Z,52.13
2022-12-11T18:11:52.035Z,52.12
2022-12-11T18:16:54.084Z,52.30
2022-12-11T18:21:56.709Z,52.05
2022-12-11T18:26:59.698Z,52.20
2022-12-11T18:32:01.815Z,52.00
2022-12-11T18:37:03.991Z,52.17
2022-12-11T18:42:33.141Z,52.21
2022-12-11T18:47:28.723Z,52.38
2022-12-11T18:52:30.793Z,52.23
2022-12-11T18:57:33.433Z,52.07
2022-12-11T19:02:35.784Z,52.22
2022-12-11T19:07:38.773Z,52.29
2022-12-11T19:12:42.901Z,52.10
2022-12-11T19:17:45.011Z,52.28
2022-12-11T19:22:47.044Z,52.21
2022-12-11T19:27:50.346Z,52.25
2022-12-11T19:32:52.452Z,52.14
2022-12-11T19:37:56.191Z,52.17
2022-12-11T19:42:58.240Z,51.98
2022-12-11T19:48:00.272Z,52.05
2022-12-11T19:53:02.205Z,52.14
2022-12-11T19:58:04.257Z,52.32
2022-12-11T20:03:06.330Z,52.28
2022-12-11T20:08:42.314Z,52.35
2022-12-11T20:13:32.353Z,52.21
2022-12-11T20:18:34.723Z,52.43
2022-12-11T20:23:37.095Z,52.31
2022-12-11T20:28:39.269Z,52.10
2022-12-11T20:33:41.365Z,52.11
2022-12-11T20:38:44.217Z,52.24
2022-12-11T20:43:47.292Z,52.20
2022-12-11T20:48:49.817Z,52.36
2022-12-11T20:53:57.731Z,52.24
2022-12-11T20:59:00.737Z,52.12
2022-12-11T21:04:03.155Z,52.27
2022-12-11T21:09:08.049Z,52.36
2022-12-11T21:14:10.599Z,52.15
2022-12-11T21:19:17.079Z,52.30
2022-12-11T21:24:22.557Z,52.38
2022-12-11T21:29:26.581Z,52.31
2022-12-11T21:34:28.632Z,52.16
2022-12-11T21:39:34.748Z,52.20
2022-12-11T21:50:02.755Z,52.22
2022-12-11T21:55:05.911Z,52.33
2022-12-11T22:00:09.539Z,52.21
2022-12-11T22:05:14.490Z,52.11
2022-12-11T22:10:16.790Z,52.16
2022-12-11T22:15:18.746Z,52.27
2022-12-11T22:20:20.929Z,52.28
2022-12-11T22:25:23.080Z,52.21
2022-12-11T22:30:25.160Z,52.30
2022-12-11T22:35:27.619Z,52.28
2022-12-11T22:40:30.193Z,52.33
2022-12-11T22:45:32.220Z,52.46
2022-12-11T22:50:35.816Z,52.47
2022-12-11T22:55:40.940Z,52.50
2022-12-11T23:00:43.003Z,52.67
2022-12-11T23:05:45.123Z,52.53
2022-12-11T23:10:47.211Z,52.41
2022-12-11T23:15:49.241Z,52.35
2022-12-11T23:20:51.441Z,52.55
2022-12-11T23:25:53.581Z,52.67
2022-12-11T23:30:55.664Z,52.67
2022-12-11T23:35:58.483Z,52.51
2022-12-11T23:41:02.063Z,52.63
2022-12-11T23:46:07.662Z,52.44
2022-12-11T23:51:13.264Z,52.57
2022-12-11T23:56:24.215Z,52.45
